Halle Kroellwitz, Germany

2:12 AM CET on February 10, 2016 (GMT +0100)
Halle, Paulusviertel | | Change Station
CLOSE
Current Station
Personal Weather Station
Location: Halle (Saale), SAXONY-ANHALT
Elevation: 361 ft
Nearby Weather Stations

Elev 361 ft 51.50 °N, 11.97 °E | Updated 22 seconds ago

Scattered Clouds
Scattered Clouds
42.3 °F
Feels Like 40 °F
N
4.0
Wind Variable Wind from WSW
Gusts 4.9 mph

Today
High -- | Low -- °F
--% Chance of Precip.
Yesterday
High -- | Low -- °F
Precip. -- in
Pressure 29.18 in
Visibility 6.2 miles
Clouds Scattered Clouds 3300 ft
Windchill 40 °F
Dew Point 33 °F
Humidity 69%
Rainfall 0.00 in
Snow Depth Not available.
7:36 AM 5:16 PM
Waxing Crescent, 3% visible
METAR EDDP 100050Z 24024KT 9999 SCT033 05/01 Q0988 TEMPO 24025G35KT
Pressure 29.18 in
Visibility 6.2 miles
Clouds Scattered Clouds 3300 ft
Windchill 40 °F
Dew Point 33 °F
Humidity 69%
Rainfall 0.00 in
Snow Depth Not available.
7:36 AM 5:16 PM
Waxing Crescent, 3% visible
METAR EDDP 100050Z 24024KT 9999 SCT033 05/01 Q0988 TEMPO 24025G35KT

10-Day Weather Forecast

Almanac

Astronomy

Feb. 10, 2016 Rise Set
Actual Time
Civil Twilight
Nautical Twilight
Astronomical Twilight
Moon
Length of Visible Light
Length of Day
Tomorrow will be .
, % of the Moon is Illuminated

Today's Extremes

Country Highs Country Lows

Community

WunderPhotos

Upload Photos

1,891,752 photos uploaded!

WunderBlog® & News

Nearby

Air Quality

  Air Quality AQ Index Pollutant
Not available.

Snow Depth

Station Depth Elevation

Earthquake Activity

City Distance Mag. Time & Date
Minimum magnitude displayed is 2.5.

Coastal Water Temperatures

Place Temperature

Stations

Nearby Weather Stations

Station Location Temp. Windchill Dew Point Humidity Wind Precip. Elev Updated Type